Terminal Aerodrome Forecast
Issued by NWS

Home | Current Version | Previous Version | Graphics & Text | Print | Product List | Glossary On
Versions: 1 2 3 4 5 6 7 8 9 10 11 12 13 14 15 16 17
000
FTUS43 KTOP 100700 AAA
TAFMHK
TAF AMD
KMHK 100708Z 1007/1106 10006KT P6SM -SHRA VCTS SCT070CB BKN120
     FM101000 10005KT P6SM BKN080
     FM101600 15014G22KT P6SM SCT100=

USA.gov is the U.S. government's official web portal to all federal, state and local government web resources and services.